Time;durP1;ratioP1;P1;durP2;ratioP2;P2;SDS_P1;SDS_P2;PMS_P1;PMS_P2;Temp;Humidity;BMP_temperature;BMP_pressure;BME280_temperature;BME280_humidity;BME280_pressure;Samples;Min_cycle;Max_cycle;Signal;HPM_P1;HPM_P2
2021/10/16 00:01:44;;;;;;;8.17;5.43;;;8.50;99.90;;;;;;476889;249;28004;-76
2021/10/16 00:03:45;;;;;;;6.90;5.70;;;8.50;99.90;;;;;;486230;244;28283;-75
2021/10/16 00:05:47;;;;;;;10.03;6.83;;;8.40;99.90;;;;;;476874;249;28849;-75
2021/10/16 00:07:48;;;;;;;10.90;6.20;;;8.40;99.90;;;;;;486200;243;28505;-75
2021/10/16 00:09:49;;;;;;;7.50;5.97;;;8.30;99.90;;;;;;476895;249;27827;-76
2021/10/16 00:11:50;;;;;;;6.00;5.13;;;8.40;99.90;;;;;;486227;244;27867;-75
2021/10/16 00:13:52;;;;;;;7.10;5.47;;;8.40;99.90;;;;;;476891;249;27978;-75
2021/10/16 00:15:53;;;;;;;6.80;4.60;;;8.40;99.90;;;;;;486206;244;27938;-76
2021/10/16 00:17:54;;;;;;;5.27;4.43;;;8.40;99.90;;;;;;476903;249;28334;-75
2021/10/16 00:19:55;;;;;;;8.00;5.50;;;8.40;99.90;;;;;;486210;244;28504;-75
2021/10/16 00:21:57;;;;;;;5.70;5.20;;;8.50;99.90;;;;;;476881;249;28478;-75
2021/10/16 00:23:58;;;;;;;5.70;5.10;;;8.40;99.90;;;;;;486197;244;28133;-75
2021/10/16 00:25:59;;;;;;;6.47;5.80;;;8.40;99.90;;;;;;476877;249;28485;-75
2021/10/16 00:28:00;;;;;;;6.80;6.20;;;8.40;99.90;;;;;;486198;244;27875;-75
2021/10/16 00:30:02;;;;;;;8.30;6.57;;;8.30;99.90;;;;;;476884;248;27996;-76
2021/10/16 00:32:03;;;;;;;7.00;6.30;;;8.30;99.90;;;;;;486207;244;27773;-75
2021/10/16 00:34:04;;;;;;;7.60;6.73;;;8.30;99.90;;;;;;476881;249;28003;-76
2021/10/16 00:36:05;;;;;;;8.00;6.40;;;8.20;99.90;;;;;;486218;244;27849;-75
2021/10/16 00:38:07;;;;;;;7.97;6.23;;;8.20;99.90;;;;;;476885;249;28012;-75
2021/10/16 00:40:08;;;;;;;8.50;6.60;;;8.20;99.90;;;;;;486206;244;27382;-75
2021/10/16 00:42:09;;;;;;;7.33;6.40;;;8.20;99.90;;;;;;476882;249;28018;-76
2021/10/16 00:44:10;;;;;;;5.93;5.33;;;8.20;99.90;;;;;;486207;244;27893;-75
2021/10/16 00:46:12;;;;;;;5.60;4.93;;;8.30;99.90;;;;;;476839;249;27974;-75
2021/10/16 00:48:13;;;;;;;7.40;5.50;;;8.30;99.90;;;;;;485837;244;27774;-76
2021/10/16 00:50:14;;;;;;;6.43;4.80;;;8.20;99.90;;;;;;476865;249;27834;-75
2021/10/16 00:52:15;;;;;;;5.10;4.60;;;8.20;99.90;;;;;;486235;244;27943;-75
2021/10/16 00:54:17;;;;;;;5.33;4.83;;;8.20;99.90;;;;;;476888;248;28513;-75
2021/10/16 00:56:18;;;;;;;5.13;4.63;;;8.20;99.90;;;;;;486206;244;28183;-75
2021/10/16 00:58:19;;;;;;;5.07;4.67;;;8.10;99.90;;;;;;476896;248;28576;-75
2021/10/16 01:00:21;;;;;;;8.13;4.70;;;8.10;99.90;;;;;;486221;244;28309;-75
2021/10/16 01:02:22;;;;;;;4.53;4.20;;;8.00;99.90;;;;;;476915;249;28461;-75
2021/10/16 01:04:23;;;;;;;5.00;4.50;;;7.90;99.90;;;;;;486229;244;27863;-75
2021/10/16 01:06:24;;;;;;;5.63;4.40;;;7.80;99.90;;;;;;476907;249;27810;-75
2021/10/16 01:08:25;;;;;;;5.43;4.93;;;7.80;99.90;;;;;;486202;244;27884;-75
2021/10/16 01:10:27;;;;;;;5.50;4.70;;;7.70;99.90;;;;;;476898;249;28842;-75
2021/10/16 01:12:28;;;;;;;4.90;4.33;;;7.70;99.90;;;;;;486204;244;27786;-75
2021/10/16 01:14:29;;;;;;;4.87;4.30;;;7.60;99.90;;;;;;476887;248;27642;-75
2021/10/16 01:16:30;;;;;;;5.50;4.60;;;7.60;99.90;;;;;;486250;244;27825;-75
2021/10/16 01:18:32;;;;;;;4.37;4.03;;;7.60;99.90;;;;;;476832;249;28008;-74
2021/10/16 01:20:33;;;;;;;4.32;3.92;;;7.50;99.90;;;;;;486107;244;28275;-75
2021/10/16 01:22:34;;;;;;;6.13;4.70;;;7.50;99.90;;;;;;476847;249;27602;-75
2021/10/16 01:24:36;;;;;;;4.87;4.40;;;7.40;99.90;;;;;;486139;244;27752;-75
2021/10/16 01:26:37;;;;;;;5.50;5.00;;;7.40;99.90;;;;;;476858;249;27718;-75
2021/10/16 01:28:38;;;;;;;5.37;4.87;;;7.40;99.90;;;;;;486172;244;28324;-75
2021/10/16 01:30:39;;;;;;;7.57;4.90;;;7.40;99.90;;;;;;486211;244;29781;-75
2021/10/16 01:32:40;;;;;;;5.60;5.10;;;7.30;99.90;;;;;;476882;249;28461;-75
2021/10/16 01:34:42;;;;;;;5.37;4.87;;;7.30;99.90;;;;;;486020;244;27851;-75
2021/10/16 01:36:43;;;;;;;5.47;4.80;;;7.30;99.90;;;;;;476835;249;27483;-75
2021/10/16 01:38:44;;;;;;;5.65;4.60;;;7.20;99.90;;;;;;486199;244;27885;-75
2021/10/16 01:40:45;;;;;;;5.97;4.17;;;7.20;99.90;;;;;;476902;249;27611;-75
2021/10/16 01:42:49;;;;;;;5.20;4.57;;;7.20;99.90;;;;;;486293;244;28640;-75
2021/10/16 01:44:48;;;;;;;6.55;4.85;;;7.10;99.90;;;;;;476810;249;28563;-75
2021/10/16 01:46:49;;;;;;;5.57;4.10;;;7.10;99.90;;;;;;486249;244;27371;-75
2021/10/16 01:48:50;;;;;;;4.93;4.43;;;7.10;99.90;;;;;;476870;248;28416;-75
2021/10/16 01:50:52;;;;;;;4.60;4.15;;;7.10;99.90;;;;;;486181;244;28513;-74
2021/10/16 01:52:53;;;;;;;4.40;4.00;;;7.00;99.90;;;;;;476894;249;27944;-75
2021/10/16 01:54:54;;;;;;;5.25;4.75;;;7.00;99.90;;;;;;486202;244;27743;-75
2021/10/16 01:56:56;;;;;;;4.70;4.30;;;6.90;99.90;;;;;;476904;249;27596;-74
2021/10/16 01:58:57;;;;;;;4.60;4.20;;;6.90;99.90;;;;;;486194;244;27470;-74
2021/10/16 02:00:58;;;;;;;4.97;4.47;;;6.80;99.90;;;;;;476911;249;27560;-74
2021/10/16 02:02:59;;;;;;;5.27;4.67;;;6.70;99.90;;;;;;486235;244;27437;-75
2021/10/16 02:05:01;;;;;;;5.57;4.77;;;6.70;99.90;;;;;;476902;249;28114;-72
2021/10/16 02:07:02;;;;;;;5.32;3.95;;;6.70;99.90;;;;;;485645;244;29303;-75
2021/10/16 02:09:03;;;;;;;5.53;4.37;;;6.70;99.90;;;;;;476875;249;27987;-73
2021/10/16 02:11:04;;;;;;;5.60;4.70;;;6.70;99.90;;;;;;486203;244;27413;-73
2021/10/16 02:13:06;;;;;;;5.50;4.97;;;6.60;99.90;;;;;;476895;249;27522;-72
2021/10/16 02:15:07;;;;;;;5.82;4.85;;;6.60;99.90;;;;;;486204;244;27421;-75
2021/10/16 02:17:08;;;;;;;5.37;4.87;;;6.50;99.90;;;;;;476964;248;27544;-76
2021/10/16 02:19:09;;;;;;;8.38;5.70;;;6.40;99.90;;;;;;486205;244;28713;-73
2021/10/16 02:21:11;;;;;;;7.30;5.95;;;6.40;99.90;;;;;;476890;248;27971;-73
2021/10/16 02:23:12;;;;;;;7.03;5.82;;;6.30;99.90;;;;;;486195;244;27845;-73
2021/10/16 02:25:13;;;;;;;5.97;5.10;;;6.30;99.90;;;;;;476903;248;27636;-74
2021/10/16 02:27:14;;;;;;;5.85;4.95;;;6.30;99.90;;;;;;486230;244;27495;-73
2021/10/16 02:29:16;;;;;;;6.55;5.53;;;6.30;99.90;;;;;;476920;248;27504;-75
2021/10/16 02:31:17;;;;;;;7.78;5.78;;;6.30;99.90;;;;;;486211;244;27505;-73
2021/10/16 02:33:18;;;;;;;7.60;5.47;;;6.20;99.90;;;;;;476882;249;27520;-76
2021/10/16 02:35:19;;;;;;;6.80;6.10;;;6.10;99.90;;;;;;486195;244;28015;-72
2021/10/16 02:37:21;;;;;;;9.20;6.95;;;6.10;99.90;;;;;;486194;244;27965;-72
2021/10/16 02:39:22;;;;;;;6.97;5.50;;;6.10;99.90;;;;;;476870;249;27564;-74
2021/10/16 02:41:23;;;;;;;8.05;6.18;;;6.10;99.90;;;;;;486180;244;27413;-74
2021/10/16 02:43:24;;;;;;;6.00;4.90;;;6.10;99.90;;;;;;476879;249;27496;-74
2021/10/16 02:45:26;;;;;;;5.87;4.93;;;6.10;99.90;;;;;;486233;244;27525;-74
2021/10/16 02:47:30;;;;;;;6.37;5.20;;;6.10;99.90;;;;;;476840;249;27520;-74
2021/10/16 02:49:28;;;;;;;5.60;4.75;;;6.10;99.90;;;;;;485962;244;27972;-73
2021/10/16 02:51:29;;;;;;;4.70;4.20;;;6.10;99.90;;;;;;486186;244;27931;-74
2021/10/16 02:53:31;;;;;;;5.07;4.55;;;6.10;99.90;;;;;;476939;248;27636;-74
2021/10/16 02:55:32;;;;;;;4.85;4.35;;;6.10;99.90;;;;;;486177;244;27425;-74
2021/10/16 02:57:33;;;;;;;8.02;4.85;;;6.00;99.90;;;;;;476862;249;27514;-74
2021/10/16 02:59:34;;;;;;;4.93;4.00;;;5.90;99.90;;;;;;486198;244;27378;-74
2021/10/16 03:01:36;;;;;;;4.95;4.53;;;5.90;99.90;;;;;;476856;249;27518;-73
2021/10/16 03:03:37;;;;;;;5.07;4.57;;;5.90;99.90;;;;;;486192;244;27402;-73
2021/10/16 03:05:38;;;;;;;4.32;3.92;;;5.90;99.90;;;;;;486186;244;27880;-73
2021/10/16 03:07:40;;;;;;;4.22;3.83;;;5.90;99.90;;;;;;476833;248;27988;-74
2021/10/16 03:09:41;;;;;;;4.15;3.67;;;5.80;99.90;;;;;;486135;244;27385;-74
2021/10/16 03:11:42;;;;;;;4.00;3.62;;;5.80;99.90;;;;;;476828;248;27514;-73
2021/10/16 03:13:43;;;;;;;4.30;3.87;;;5.80;99.90;;;;;;486143;244;27426;-73
2021/10/16 03:15:45;;;;;;;3.40;3.10;;;5.80;99.90;;;;;;476867;249;27482;-74
2021/10/16 03:17:46;;;;;;;3.30;3.00;;;5.80;99.90;;;;;;486200;244;27421;-73
2021/10/16 03:19:47;;;;;;;3.45;3.15;;;5.70;99.90;;;;;;476875;249;27963;-73
2021/10/16 03:21:48;;;;;;;3.83;3.33;;;5.70;99.90;;;;;;486199;244;27936;-74
2021/10/16 03:23:50;;;;;;;3.50;3.20;;;5.60;99.90;;;;;;486209;244;27425;-73
2021/10/16 03:25:51;;;;;;;3.25;2.90;;;5.60;99.90;;;;;;476889;248;27617;-74
2021/10/16 03:27:52;;;;;;;3.97;3.30;;;5.60;99.90;;;;;;486181;244;27504;-75
2021/10/16 03:29:53;;;;;;;3.03;2.80;;;5.50;99.90;;;;;;476898;249;27555;-74
2021/10/16 03:31:55;;;;;;;3.30;3.00;;;5.50;99.90;;;;;;486250;244;27466;-72
2021/10/16 03:33:56;;;;;;;3.45;2.83;;;5.50;99.90;;;;;;476910;248;27635;-73
2021/10/16 03:35:57;;;;;;;3.30;3.03;;;5.50;99.90;;;;;;486221;244;27826;-75
2021/10/16 03:37:58;;;;;;;3.30;3.00;;;5.50;99.90;;;;;;476912;248;28062;-73
2021/10/16 03:40:00;;;;;;;3.60;3.30;;;5.40;99.90;;;;;;486191;244;27415;-72
2021/10/16 03:42:01;;;;;;;3.60;3.30;;;5.40;99.90;;;;;;476919;248;27489;-73
2021/10/16 03:44:02;;;;;;;3.28;2.97;;;5.40;99.90;;;;;;486182;244;27419;-73
2021/10/16 03:46:03;;;;;;;3.70;3.35;;;5.30;99.90;;;;;;476994;249;27481;-73
2021/10/16 03:48:05;;;;;;;4.00;3.60;;;5.20;99.90;;;;;;486158;244;27419;-75
2021/10/16 03:50:06;;;;;;;3.87;3.58;;;5.10;99.90;;;;;;476889;248;27977;-73
2021/10/16 03:52:07;;;;;;;3.60;3.12;;;5.00;99.90;;;;;;486218;244;27381;-73
2021/10/16 03:54:08;;;;;;;3.83;3.45;;;5.00;99.90;;;;;;476879;249;28016;-73
2021/10/16 03:56:10;;;;;;;4.07;3.58;;;5.00;99.90;;;;;;486210;244;27840;-73
2021/10/16 03:58:11;;;;;;;4.18;3.30;;;5.00;99.90;;;;;;476912;249;27518;-73
2021/10/16 04:00:19;;;;;;;4.00;3.60;;;5.00;99.90;;;;;;486223;244;27493;-72
2021/10/16 04:02:13;;;;;;;4.35;3.95;;;4.90;99.90;;;;;;485359;244;27369;-72
2021/10/16 04:04:15;;;;;;;3.40;3.10;;;4.90;99.90;;;;;;486172;244;27757;-72
2021/10/16 04:06:16;;;;;;;3.37;3.08;;;5.00;99.90;;;;;;476904;249;27492;-73
2021/10/16 04:08:17;;;;;;;3.25;3.05;;;5.00;99.90;;;;;;486192;244;27477;-73
2021/10/16 04:10:18;;;;;;;3.25;3.03;;;5.00;99.90;;;;;;476887;248;27531;-73
2021/10/16 04:12:20;;;;;;;3.60;3.30;;;5.00;99.90;;;;;;486197;244;27881;-73
2021/10/16 04:14:21;;;;;;;3.17;2.87;;;4.90;99.90;;;;;;476877;248;27991;-73
2021/10/16 04:16:22;;;;;;;3.53;3.22;;;4.90;99.90;;;;;;486142;244;27766;-73
2021/10/16 04:18:23;;;;;;;2.50;2.30;;;4.90;99.90;;;;;;476903;249;27504;-73
2021/10/16 04:20:25;;;;;;;3.20;2.90;;;4.80;99.90;;;;;;486174;244;27489;-73
2021/10/16 04:22:26;;;;;;;2.92;2.72;;;4.80;99.90;;;;;;476930;249;27596;-74
2021/10/16 04:24:27;;;;;;;3.00;2.80;;;4.80;99.90;;;;;;486233;244;27417;-75
2021/10/16 04:26:28;;;;;;;3.40;3.20;;;4.80;99.90;;;;;;476883;248;27542;-73
2021/10/16 04:28:30;;;;;;;3.47;3.17;;;4.80;99.90;;;;;;486220;244;27458;-73
2021/10/16 04:30:31;;;;;;;3.50;3.20;;;4.80;99.90;;;;;;476885;248;27988;-73
2021/10/16 04:32:35;;;;;;;3.55;3.25;;;4.80;99.90;;;;;;486173;244;27921;-74
2021/10/16 04:34:33;;;;;;;3.72;3.42;;;4.80;99.90;;;;;;476704;249;28063;-73
2021/10/16 04:36:35;;;;;;;3.72;3.17;;;4.80;99.90;;;;;;486211;244;27448;-73
2021/10/16 04:38:36;;;;;;;3.80;3.50;;;4.80;99.90;;;;;;476920;249;27586;-73
2021/10/16 04:40:37;;;;;;;3.40;3.10;;;4.80;99.90;;;;;;486118;244;27517;-73
2021/10/16 04:42:39;;;;;;;3.40;2.80;;;4.70;99.90;;;;;;476893;249;27528;-76
2021/10/16 04:44:40;;;;;;;3.03;2.83;;;4.80;99.90;;;;;;486100;244;27497;-73
2021/10/16 04:46:41;;;;;;;3.58;3.28;;;4.60;99.90;;;;;;476881;248;27539;-73
2021/10/16 04:48:42;;;;;;;3.03;2.72;;;4.70;99.90;;;;;;486169;244;27831;-73
2021/10/16 04:50:44;;;;;;;3.10;2.90;;;4.70;99.90;;;;;;476850;248;28000;-73
2021/10/16 04:52:45;;;;;;;3.25;3.05;;;4.70;99.90;;;;;;486160;244;27842;-73
2021/10/16 04:54:46;;;;;;;2.75;2.55;;;4.60;99.90;;;;;;476839;249;27648;-73
2021/10/16 04:56:47;;;;;;;3.22;2.80;;;4.60;99.90;;;;;;486198;244;27429;-73
2021/10/16 04:58:49;;;;;;;2.95;2.75;;;4.60;99.90;;;;;;476844;249;27508;-74
2021/10/16 05:00:50;;;;;;;3.00;2.80;;;4.60;99.90;;;;;;486150;244;27417;-73
2021/10/16 05:02:51;;;;;;;2.60;2.40;;;4.60;99.90;;;;;;476764;249;27500;-73
2021/10/16 05:04:52;;;;;;;2.80;2.65;;;4.60;99.90;;;;;;486089;244;27502;-72
2021/10/16 05:06:54;;;;;;;2.62;2.53;;;4.60;99.90;;;;;;476843;249;27514;-73
2021/10/16 05:08:55;;;;;;;2.80;2.60;;;4.60;99.90;;;;;;486152;244;27373;-74
2021/10/16 05:10:56;;;;;;;2.80;2.60;;;4.60;99.90;;;;;;476834;249;27524;-73
2021/10/16 05:12:57;;;;;;;2.70;2.50;;;4.60;99.90;;;;;;486154;244;28702;-73
2021/10/16 05:14:59;;;;;;;2.90;2.70;;;4.50;99.90;;;;;;476829;249;28034;-73
2021/10/16 05:17:00;;;;;;;3.47;3.17;;;4.50;99.90;;;;;;486163;244;27862;-73
2021/10/16 05:19:01;;;;;;;3.22;2.87;;;4.40;99.90;;;;;;476829;249;27468;-73
2021/10/16 05:21:04;;;;;;;3.08;2.78;;;4.40;99.90;;;;;;486170;244;27399;-73
2021/10/16 05:23:04;;;;;;;7.87;3.33;;;4.40;99.90;;;;;;476714;249;27567;-73
2021/10/16 05:25:05;;;;;;;2.75;2.50;;;4.50;99.90;;;;;;486186;244;27442;-74
2021/10/16 05:27:06;;;;;;;3.42;3.12;;;4.60;99.90;;;;;;476888;249;27503;-73
2021/10/16 05:29:07;;;;;;;3.55;3.00;;;4.60;99.90;;;;;;486197;244;27385;-73
2021/10/16 05:31:09;;;;;;;4.57;3.87;;;4.50;99.90;;;;;;476856;249;27526;-73
2021/10/16 05:33:10;;;;;;;2.85;2.65;;;4.60;99.90;;;;;;486000;244;27512;-73
2021/10/16 05:35:11;;;;;;;3.20;2.90;;;4.60;99.90;;;;;;476737;249;28048;-73
2021/10/16 05:37:12;;;;;;;2.80;2.60;;;4.70;99.90;;;;;;486118;244;27908;-74
2021/10/16 05:39:14;;;;;;;3.47;3.17;;;4.70;99.90;;;;;;476826;249;27960;-74
2021/10/16 05:41:15;;;;;;;4.15;3.37;;;4.80;99.90;;;;;;485967;244;27494;-72
2021/10/16 05:43:16;;;;;;;5.62;2.78;;;4.80;99.90;;;;;;476402;249;27524;-73
2021/10/16 05:45:17;;;;;;;3.35;3.05;;;4.80;99.90;;;;;;486200;244;27381;-74
2021/10/16 05:47:19;;;;;;;2.90;2.62;;;4.80;99.90;;;;;;476862;249;27642;-73
2021/10/16 05:49:20;;;;;;;3.67;3.30;;;4.80;99.90;;;;;;486173;244;27386;-73
2021/10/16 05:51:21;;;;;;;3.03;2.72;;;4.80;99.90;;;;;;476869;249;27530;-73
2021/10/16 05:53:22;;;;;;;4.90;3.65;;;4.80;99.90;;;;;;486172;244;27429;-72
2021/10/16 05:55:24;;;;;;;3.10;2.80;;;4.80;99.90;;;;;;476892;249;27582;-73
2021/10/16 05:57:25;;;;;;;2.92;2.72;;;4.70;99.90;;;;;;486144;244;27972;-73
2021/10/16 05:59:26;;;;;;;3.00;2.70;;;4.70;99.90;;;;;;476876;249;28031;-75
2021/10/16 06:01:27;;;;;;;3.03;2.80;;;4.80;99.90;;;;;;486159;244;27874;-73
2021/10/16 06:03:29;;;;;;;3.15;2.85;;;4.80;99.90;;;;;;486156;244;27509;-73
2021/10/16 06:05:30;;;;;;;3.22;2.95;;;4.90;99.90;;;;;;476862;249;27574;-74
2021/10/16 06:07:31;;;;;;;2.90;2.70;;;4.90;99.90;;;;;;486180;244;27442;-72
2021/10/16 06:09:32;;;;;;;2.70;2.50;;;5.00;99.90;;;;;;476875;249;27598;-73
2021/10/16 06:11:34;;;;;;;4.15;3.40;;;5.00;99.90;;;;;;486100;244;27407;-74
2021/10/16 06:13:35;;;;;;;4.45;3.00;;;5.00;99.90;;;;;;486157;244;27429;-74
2021/10/16 06:15:36;;;;;;;3.05;2.72;;;4.90;99.90;;;;;;476862;249;27493;-73
2021/10/16 06:17:37;;;;;;;2.62;2.42;;;4.80;99.90;;;;;;486188;244;27869;-73
2021/10/16 06:19:39;;;;;;;3.20;2.90;;;4.80;99.90;;;;;;476811;249;28108;-74
2021/10/16 06:21:40;;;;;;;2.90;2.70;;;4.90;99.90;;;;;;486171;244;27841;-74
2021/10/16 06:23:41;;;;;;;3.20;2.90;;;5.00;99.90;;;;;;476812;249;27512;-73
2021/10/16 06:25:42;;;;;;;3.22;2.95;;;5.10;99.90;;;;;;486229;244;27374;-74
2021/10/16 06:27:44;;;;;;;3.55;3.25;;;5.00;99.90;;;;;;476900;249;27629;-73
2021/10/16 06:29:45;;;;;;;3.58;3.28;;;5.00;99.90;;;;;;486211;244;27506;-73
2021/10/16 06:31:46;;;;;;;3.35;3.05;;;5.00;99.90;;;;;;476890;248;27484;-73
2021/10/16 06:33:47;;;;;;;3.55;2.80;;;5.00;99.90;;;;;;486211;244;27425;-73
2021/10/16 06:35:49;;;;;;;4.28;3.25;;;5.10;99.90;;;;;;476816;248;27546;-75
2021/10/16 06:37:50;;;;;;;3.53;2.72;;;5.10;99.90;;;;;;486221;244;27421;-75
2021/10/16 06:39:51;;;;;;;2.70;2.50;;;5.20;99.90;;;;;;476926;249;28124;-75
2021/10/16 06:41:52;;;;;;;3.17;2.60;;;5.30;99.90;;;;;;486231;244;27490;-75
2021/10/16 06:43:54;;;;;;;2.53;2.33;;;5.40;99.90;;;;;;476901;248;27529;-75
2021/10/16 06:45:55;;;;;;;3.15;2.85;;;5.50;99.90;;;;;;486231;244;27383;-75
2021/10/16 06:47:56;;;;;;;5.28;2.80;;;5.60;99.90;;;;;;477196;249;27521;-75
2021/10/16 06:49:57;;;;;;;3.20;2.90;;;5.70;99.90;;;;;;486491;244;27535;-75
2021/10/16 06:51:59;;;;;;;3.25;2.80;;;5.80;99.90;;;;;;476893;249;27604;-75
2021/10/16 06:54:02;;;;;;;3.10;2.85;;;5.90;99.90;;;;;;486219;244;27976;-75
2021/10/16 06:56:01;;;;;;;3.08;2.87;;;5.90;99.90;;;;;;476775;249;29041;-75
2021/10/16 06:58:02;;;;;;;4.03;3.33;;;6.00;99.90;;;;;;486176;244;27381;-75
2021/10/16 07:00:04;;;;;;;3.60;3.30;;;6.10;99.90;;;;;;486183;244;27457;-75
2021/10/16 07:02:05;;;;;;;3.58;3.10;;;6.10;99.90;;;;;;476896;248;27485;-76
2021/10/16 07:04:06;;;;;;;2.87;2.67;;;6.20;99.90;;;;;;486231;244;27422;-76
2021/10/16 07:06:08;;;;;;;3.47;3.17;;;6.20;99.90;;;;;;476865;249;27539;-73
2021/10/16 07:08:09;;;;;;;3.72;3.30;;;6.20;99.90;;;;;;486224;244;27424;-73
2021/10/16 07:10:10;;;;;;;3.22;2.92;;;6.30;99.90;;;;;;476882;248;28029;-72
2021/10/16 07:12:11;;;;;;;3.72;3.37;;;6.20;99.90;;;;;;486228;244;27848;-76
2021/10/16 07:14:13;;;;;;;2.90;2.70;;;6.20;99.90;;;;;;477207;248;27610;-75
2021/10/16 07:16:14;;;;;;;3.50;3.20;;;6.10;99.90;;;;;;486460;244;27406;-76
2021/10/16 07:18:15;;;;;;;4.57;3.20;;;6.00;99.90;;;;;;486525;244;27417;-76
2021/10/16 07:20:16;;;;;;;3.60;3.25;;;6.00;99.90;;;;;;477176;248;27517;-75
2021/10/16 07:22:18;;;;;;;3.05;2.75;;;6.00;99.90;;;;;;486530;244;27465;-75
2021/10/16 07:24:19;;;;;;;3.30;3.05;;;6.00;99.90;;;;;;476886;248;28067;-75
2021/10/16 07:26:20;;;;;;;2.78;2.58;;;6.10;99.90;;;;;;486256;244;27996;-75
2021/10/16 07:28:21;;;;;;;2.65;2.45;;;6.00;99.90;;;;;;476942;248;27588;-75
2021/10/16 07:30:23;;;;;;;3.30;3.10;;;6.10;99.90;;;;;;485955;244;27417;-75
2021/10/16 07:32:24;;;;;;;3.30;3.03;;;6.10;99.90;;;;;;476939;249;27507;-75
2021/10/16 07:34:25;;;;;;;3.30;3.00;;;6.10;99.90;;;;;;486192;244;27414;-75
2021/10/16 07:36:32;;;;;;;3.45;2.83;;;6.10;99.90;;;;;;476918;249;27624;-75
2021/10/16 07:38:28;;;;;;;3.17;2.95;;;6.10;99.90;;;;;;485821;244;27995;-75
2021/10/16 07:40:29;;;;;;;3.40;3.10;;;6.20;99.90;;;;;;486255;244;27981;-75
2021/10/16 07:42:30;;;;;;;3.05;2.85;;;6.30;99.90;;;;;;476928;248;27614;-75
2021/10/16 07:44:31;;;;;;;3.22;3.00;;;6.50;99.90;;;;;;486191;244;27378;-75
2021/10/16 07:46:33;;;;;;;3.30;3.00;;;6.60;99.90;;;;;;476935;248;27527;-76
2021/10/16 07:48:34;;;;;;;3.30;3.10;;;6.70;99.90;;;;;;486232;244;27857;-75
2021/10/16 07:50:35;;;;;;;2.80;2.60;;;6.70;99.90;;;;;;476902;248;27981;-75
2021/10/16 07:52:37;;;;;;;2.90;2.60;;;6.70;99.90;;;;;;486189;244;27939;-76
2021/10/16 07:54:38;;;;;;;2.92;2.70;;;6.70;99.90;;;;;;476877;249;27952;-75
2021/10/16 07:56:39;;;;;;;3.25;2.95;;;6.70;99.90;;;;;;486204;244;28012;-75
2021/10/16 07:58:41;;;;;;;3.00;2.80;;;6.70;99.90;;;;;;476912;249;27476;-75
2021/10/16 08:00:41;;;;;;;3.20;3.00;;;6.70;99.90;;;;;;486166;244;28741;-75
2021/10/16 08:02:43;;;;;;;3.90;3.22;;;6.80;99.90;;;;;;476902;248;27618;-76
2021/10/16 08:04:44;;;;;;;3.10;2.80;;;6.80;99.90;;;;;;486208;244;27442;-76
2021/10/16 08:06:45;;;;;;;3.40;3.10;;;6.80;99.90;;;;;;476903;248;27526;-75
2021/10/16 08:08:46;;;;;;;3.05;2.83;;;6.90;99.90;;;;;;486192;244;27858;-75
2021/10/16 08:10:48;;;;;;;3.30;3.00;;;7.00;99.90;;;;;;476893;248;27987;-75
2021/10/16 08:12:49;;;;;;;3.25;2.95;;;7.00;99.90;;;;;;486184;244;27506;-75
2021/10/16 08:14:50;;;;;;;3.30;3.00;;;7.10;99.90;;;;;;476906;249;27480;-75
2021/10/16 08:16:52;;;;;;;2.67;2.47;;;7.20;99.90;;;;;;486207;244;28873;-75
2021/10/16 08:18:53;;;;;;;3.58;3.20;;;7.30;99.90;;;;;;476890;248;27721;-75
2021/10/16 08:20:54;;;;;;;3.90;3.50;;;7.50;99.90;;;;;;486219;244;27396;-75
2021/10/16 08:22:55;;;;;;;6.32;5.18;;;7.80;99.90;;;;;;476897;249;28171;-75
2021/10/16 08:24:57;;;;;;;9.07;5.20;;;8.10;99.90;;;;;;486201;244;27920;-75
2021/10/16 08:26:58;;;;;;;7.30;5.83;;;8.20;99.90;;;;;;476909;249;28321;-76
2021/10/16 08:28:59;;;;;;;6.80;6.10;;;8.30;99.90;;;;;;485893;244;29326;-76
2021/10/16 08:31:00;;;;;;;7.70;6.87;;;8.40;99.90;;;;;;476903;249;28854;-76
2021/10/16 08:33:02;;;;;;;7.20;6.50;;;8.60;99.90;;;;;;486152;244;28409;-75
2021/10/16 08:35:03;;;;;;;9.63;7.03;;;8.70;99.90;;;;;;476891;248;27603;-75
2021/10/16 08:37:05;;;;;;;9.00;7.30;;;8.80;99.90;;;;;;486216;244;27902;-76
2021/10/16 08:39:05;;;;;;;8.50;7.60;;;8.90;99.90;;;;;;476860;248;27995;-76
2021/10/16 08:41:07;;;;;;;9.93;7.00;;;9.00;99.90;;;;;;486236;244;28025;-76
2021/10/16 08:43:08;;;;;;;10.70;7.60;;;9.10;99.90;;;;;;476876;249;28110;-76
2021/10/16 08:45:09;;;;;;;10.63;7.73;;;9.20;99.90;;;;;;486208;244;27890;-76
2021/10/16 08:47:10;;;;;;;10.37;8.10;;;9.30;99.90;;;;;;476893;249;28006;-76
2021/10/16 08:49:12;;;;;;;9.97;7.90;;;9.40;99.90;;;;;;486227;244;28225;-76
2021/10/16 08:51:13;;;;;;;12.07;7.90;;;9.40;99.90;;;;;;476921;249;28147;-76
2021/10/16 08:53:14;;;;;;;9.07;7.60;;;9.50;99.90;;;;;;486268;244;27889;-76
2021/10/16 08:55:15;;;;;;;9.80;7.60;;;9.60;99.90;;;;;;476977;249;27920;-76
2021/10/16 08:57:17;;;;;;;9.93;7.27;;;9.80;99.90;;;;;;486296;243;28120;-76
2021/10/16 08:59:18;;;;;;;7.87;7.03;;;9.90;99.90;;;;;;486303;244;28476;-76
2021/10/16 09:01:19;;;;;;;8.30;6.40;;;9.90;99.90;;;;;;476992;249;28195;-76
2021/10/16 09:03:20;;;;;;;6.60;6.00;;;10.00;99.90;;;;;;486295;244;28480;-76
2021/10/16 09:05:22;;;;;;;7.67;5.70;;;10.10;99.90;;;;;;476985;249;28360;-76
2021/10/16 09:07:23;;;;;;;5.83;5.33;;;10.10;99.90;;;;;;486254;244;28015;-76
2021/10/16 09:09:24;;;;;;;7.53;6.07;;;10.20;99.90;;;;;;476960;249;28007;-76
2021/10/16 09:11:25;;;;;;;6.20;5.20;;;10.30;99.90;;;;;;486254;244;27863;-76
2021/10/16 09:13:27;;;;;;;6.00;5.40;;;10.40;99.90;;;;;;476932;249;27937;-76
2021/10/16 09:15:28;;;;;;;6.20;5.60;;;10.40;99.90;;;;;;486250;244;27879;-76
2021/10/16 09:17:29;;;;;;;6.80;5.10;;;10.30;99.90;;;;;;476679;249;27869;-76
2021/10/16 09:19:30;;;;;;;5.00;4.50;;;10.30;99.90;;;;;;486234;244;27903;-76
2021/10/16 09:21:32;;;;;;;5.80;5.00;;;10.30;99.90;;;;;;476926;249;27840;-76
2021/10/16 09:23:33;;;;;;;5.13;4.23;;;10.30;99.90;;;;;;486261;244;28423;-76
2021/10/16 09:25:35;;;;;;;5.43;4.77;;;10.30;99.90;;;;;;476900;249;29061;-76
2021/10/16 09:27:35;;;;;;;4.77;4.27;;;10.40;99.90;;;;;;486195;244;28057;-76
2021/10/16 09:29:37;;;;;;;4.73;4.20;;;10.50;99.90;;;;;;476901;249;28466;-76
2021/10/16 09:31:38;;;;;;;4.33;3.93;;;10.40;99.90;;;;;;486225;244;27818;-76
2021/10/16 09:33:39;;;;;;;5.00;4.47;;;10.50;99.90;;;;;;476915;249;27793;-76
2021/10/16 09:35:40;;;;;;;5.67;4.80;;;10.60;99.90;;;;;;486174;244;27977;-77
2021/10/16 09:37:42;;;;;;;5.63;5.07;;;10.60;99.90;;;;;;476931;249;27965;-76
2021/10/16 09:39:43;;;;;;;5.40;4.90;;;10.70;99.90;;;;;;486256;244;27883;-76
2021/10/16 09:41:44;;;;;;;5.17;4.63;;;10.80;99.90;;;;;;476975;249;27941;-76
2021/10/16 09:43:45;;;;;;;5.47;4.40;;;10.70;99.90;;;;;;486312;244;28004;-76
2021/10/16 09:45:47;;;;;;;5.00;4.50;;;10.60;99.90;;;;;;476948;249;28016;-77
2021/10/16 09:47:48;;;;;;;4.70;4.30;;;10.60;99.90;;;;;;486306;244;27953;-76
2021/10/16 09:49:49;;;;;;;4.33;3.70;;;10.80;99.90;;;;;;476953;249;28443;-76
2021/10/16 09:51:50;;;;;;;4.30;3.80;;;10.80;99.90;;;;;;486283;243;28451;-76
2021/10/16 09:53:52;;;;;;;4.63;4.23;;;10.90;99.90;;;;;;476986;249;28588;-76
2021/10/16 09:55:53;;;;;;;4.27;3.87;;;10.90;99.90;;;;;;486285;244;27862;-76
2021/10/16 09:57:54;;;;;;;4.50;4.10;;;11.00;99.90;;;;;;476976;249;28179;-76
2021/10/16 09:59:55;;;;;;;4.10;3.80;;;11.10;99.90;;;;;;486320;244;27958;-77
2021/10/16 10:01:57;;;;;;;4.50;3.80;;;11.20;99.90;;;;;;476981;248;27976;-75
2021/10/16 10:03:58;;;;;;;3.70;3.40;;;11.40;99.90;;;;;;486240;244;28037;-77
2021/10/16 10:05:59;;;;;;;4.10;3.70;;;11.40;99.90;;;;;;476930;248;28586;-75
2021/10/16 10:08:00;;;;;;;5.33;3.77;;;11.40;99.90;;;;;;486224;244;28161;-76
2021/10/16 10:10:02;;;;;;;5.10;4.60;;;11.50;99.90;;;;;;476793;249;28238;-75
2021/10/16 10:12:04;;;;;;;3.90;3.60;;;11.60;99.90;;;;;;486103;244;28254;-75
2021/10/16 10:14:04;;;;;;;3.77;3.47;;;11.60;99.90;;;;;;476821;249;28764;-76
2021/10/16 10:16:05;;;;;;;3.67;3.37;;;11.60;99.90;;;;;;486183;244;28795;-75
2021/10/16 10:20:27;;;;;;;3.43;3.13;;;;;;;;;;486165;244;28213;-75
2021/10/16 10:22:28;;;;;;;3.40;3.20;;;11.50;99.90;;;;;;486218;244;27657;-75
2021/10/16 10:24:30;;;;;;;4.30;3.90;;;11.40;99.90;;;;;;486184;244;28353;-75
2021/10/16 10:26:31;;;;;;;4.10;3.70;;;11.30;99.90;;;;;;476872;248;28288;-75
2021/10/16 10:28:32;;;;;;;3.97;3.23;;;11.20;99.90;;;;;;485911;244;27978;-75
2021/10/16 10:30:33;;;;;;;3.20;3.00;;;11.30;99.90;;;;;;476738;249;28449;-75
2021/10/16 10:32:35;;;;;;;3.57;3.27;;;11.30;99.90;;;;;;486228;244;28291;-75
2021/10/16 10:34:38;;;;;;;2.80;2.60;;;11.40;99.90;;;;;;476901;248;28317;-75
2021/10/16 10:36:37;;;;;;;3.40;3.10;;;11.40;99.90;;;;;;486081;244;28092;-75
2021/10/16 10:38:42;;;;;;;3.40;3.10;;;11.40;99.90;;;;;;476891;249;28242;-74
2021/10/16 10:40:40;;;;;;;3.50;3.20;;;11.40;99.90;;;;;;485748;244;28698;-75